createdAt,value
2018-06-05T00:00:05.160Z,100986.32
2018-06-05T00:00:26.932Z,100986.98
2018-06-05T00:00:48.956Z,100989.47
2018-06-05T00:01:10.715Z,100990.91
2018-06-05T00:01:32.457Z,100993.66
2018-06-05T00:01:54.222Z,100993.78
2018-06-05T00:02:15.980Z,100993.27
2018-06-05T00:02:37.750Z,100991.55
2018-06-05T00:02:59.498Z,100987.59
2018-06-05T00:03:21.254Z,100996.41
2018-06-05T00:03:43.025Z,100998.06
2018-06-05T00:04:04.799Z,100985.77
2018-06-05T00:04:26.623Z,100994.83
2018-06-05T00:04:48.375Z,100988.94
2018-06-05T00:05:10.119Z,100992.73
2018-06-05T00:05:31.900Z,100988.91
2018-06-05T00:05:53.689Z,100987.59
2018-06-05T00:06:15.454Z,100986.55
2018-06-05T00:06:37.218Z,100995.35
2018-06-05T00:06:58.973Z,100985.41
2018-06-05T00:07:20.737Z,100986.45
2018-06-05T00:07:42.511Z,100990.52
2018-06-05T00:08:04.263Z,100991.95
2018-06-05T00:08:26.007Z,100990.12
2018-06-05T00:08:47.771Z,100994.17
2018-06-05T00:09:09.553Z,100991.42
2018-06-05T00:09:31.298Z,100995.84
2018-06-05T00:09:53.046Z,100992.48
2018-06-05T00:10:14.806Z,100986.55
2018-06-05T00:10:36.563Z,100992.56
2018-06-05T00:10:58.332Z,100991.39
2018-06-05T00:11:20.089Z,100993.78
2018-06-05T00:11:41.842Z,100998.33
2018-06-05T00:12:03.590Z,100993.88
2018-06-05T00:12:25.358Z,101000.81
2018-06-05T00:12:47.110Z,100992.30
2018-06-05T00:13:08.861Z,100993.22
2018-06-05T00:13:30.606Z,100998.20
2018-06-05T00:13:52.346Z,100999.37
2018-06-05T00:14:14.113Z,100993.35
2018-06-05T00:14:35.876Z,101001.20
2018-06-05T00:14:57.651Z,100996.75
2018-06-05T00:15:19.398Z,100997.67
2018-06-05T00:15:41.155Z,100998.59
2018-06-05T00:16:02.909Z,100994.62
2018-06-05T00:16:24.663Z,100995.67
2018-06-05T00:16:46.424Z,100990.43
2018-06-05T00:17:08.208Z,101000.51
2018-06-05T00:17:29.983Z,100995.02
2018-06-05T00:17:51.743Z,101001.42
2018-06-05T00:18:13.495Z,100996.45
2018-06-05T00:18:35.251Z,100996.75
2018-06-05T00:18:57.003Z,100996.06
2018-06-05T00:19:18.771Z,101000.51
2018-06-05T00:19:40.539Z,101004.30
2018-06-05T00:20:02.296Z,100998.81
2018-06-05T00:20:24.060Z,100999.59
2018-06-05T00:20:45.832Z,100999.59
2018-06-05T00:21:07.596Z,100999.20
2018-06-05T00:21:29.355Z,100994.62
2018-06-05T00:21:51.128Z,100994.62
2018-06-05T00:22:12.882Z,100996.06
2018-06-05T00:22:34.649Z,100999.37
2018-06-05T00:22:56.411Z,100997.10
2018-06-05T00:23:18.188Z,100999.72
2018-06-05T00:23:39.950Z,100997.63
2018-06-05T00:24:01.720Z,100997.38
2018-06-05T00:24:23.510Z,101005.62
2018-06-05T00:24:45.268Z,100995.80
2018-06-05T00:25:07.030Z,100998.28
2018-06-05T00:25:28.795Z,100994.00
2018-06-05T00:25:50.544Z,100999.77
2018-06-05T00:26:12.296Z,100994.49
2018-06-05T00:26:34.053Z,100993.70
2018-06-05T00:26:55.875Z,100991.73
2018-06-05T00:27:17.604Z,100990.56
2018-06-05T00:27:39.365Z,101001.55
2018-06-05T00:28:01.127Z,100997.62
2018-06-05T00:28:22.890Z,100994.62
2018-06-05T00:28:44.655Z,100994.35
2018-06-05T00:29:06.401Z,100994.75
2018-06-05T00:29:28.166Z,100993.31
2018-06-05T00:29:49.940Z,101000.91
2018-06-05T00:30:11.700Z,101004.95
2018-06-05T00:30:33.461Z,100994.22
2018-06-05T00:30:55.231Z,100997.89
2018-06-05T00:31:17.004Z,101001.03
2018-06-05T00:31:38.742Z,100997.89
2018-06-05T00:32:00.516Z,100998.80
2018-06-05T00:32:22.267Z,100992.61
2018-06-05T00:32:44.048Z,100999.80
2018-06-05T00:33:05.792Z,100997.62
2018-06-05T00:33:27.579Z,101002.47
2018-06-05T00:33:49.351Z,100996.71
2018-06-05T00:34:11.100Z,100998.02
2018-06-05T00:34:32.879Z,100996.84
2018-06-05T00:34:54.625Z,100998.55
2018-06-05T00:35:16.396Z,100998.14
2018-06-05T00:35:38.151Z,100996.97
2018-06-05T00:35:59.907Z,100998.67
2018-06-05T00:36:21.658Z,101001.29
2018-06-05T00:36:43.428Z,101002.73
2018-06-05T00:37:05.183Z,101005.70
2018-06-05T00:37:26.934Z,101001.25
2018-06-05T00:37:48.700Z,101001.90
2018-06-05T00:38:10.475Z,101003.98
2018-06-05T00:38:32.227Z,101004.25
2018-06-05T00:38:53.994Z,101002.55
2018-06-05T00:39:15.743Z,101000.84
2018-06-05T00:39:37.532Z,101002.94
2018-06-05T00:39:59.273Z,101001.90
2018-06-05T00:40:21.032Z,101006.48
2018-06-05T00:40:42.802Z,101006.47
2018-06-05T00:41:04.563Z,101007.64
2018-06-05T00:41:26.314Z,101004.77
2018-06-05T00:41:48.067Z,101007.39
2018-06-05T00:42:09.814Z,101004.77
2018-06-05T00:42:31.563Z,101002.72
2018-06-05T00:42:53.320Z,101004.20
2018-06-05T00:43:15.088Z,101001.89
2018-06-05T00:43:36.843Z,100999.80
2018-06-05T00:43:58.616Z,101004.11
2018-06-05T00:44:20.394Z,101007.13
2018-06-05T00:44:42.171Z,101005.68
2018-06-05T00:45:03.915Z,101010.40
2018-06-05T00:45:25.666Z,101004.91
2018-06-05T00:45:47.423Z,101007.38
2018-06-05T00:46:09.189Z,101001.98
2018-06-05T00:46:30.948Z,101001.89
2018-06-05T00:46:52.690Z,101006.47
2018-06-05T00:47:14.451Z,101008.97
2018-06-05T00:47:36.201Z,101001.90
2018-06-05T00:47:57.964Z,101011.18
2018-06-05T00:48:19.712Z,101005.04
2018-06-05T00:48:41.462Z,101008.70
2018-06-05T00:49:03.230Z,101009.63
2018-06-05T00:49:25.027Z,101008.58
2018-06-05T00:49:46.789Z,101011.97
2018-06-05T00:50:08.561Z,101012.23
2018-06-05T00:50:30.316Z,101013.27
2018-06-05T00:50:52.078Z,101017.72
2018-06-05T00:51:13.845Z,101011.66
2018-06-05T00:51:35.590Z,101012.75
2018-06-05T00:51:57.351Z,101014.28
2018-06-05T00:52:19.104Z,101012.36
2018-06-05T00:52:40.867Z,101012.09
2018-06-05T00:53:02.613Z,101013.66
2018-06-05T00:53:24.379Z,101010.27
2018-06-05T00:53:46.135Z,101015.77
2018-06-05T00:54:07.900Z,101012.97
2018-06-05T00:54:29.666Z,101010.74
2018-06-05T00:54:51.423Z,101008.95
2018-06-05T00:55:13.177Z,101015.59
2018-06-05T00:55:34.924Z,101011.44
2018-06-05T00:55:56.670Z,101013.66
2018-06-05T00:56:18.423Z,101013.36
2018-06-05T00:56:40.190Z,101014.28
2018-06-05T00:57:01.926Z,101019.29
2018-06-05T00:57:23.776Z,101019.42
2018-06-05T00:57:45.530Z,101016.80
2018-06-05T00:58:07.296Z,101020.34
2018-06-05T00:58:29.064Z,101018.64
2018-06-05T00:58:50.835Z,101017.20
2018-06-05T00:59:12.596Z,101021.52
2018-06-05T00:59:34.371Z,101018.77
2018-06-05T00:59:56.115Z,101017.99
2018-06-05T01:00:17.873Z,101022.19
2018-06-05T01:00:39.633Z,101025.85
2018-06-05T01:01:01.402Z,101021.27
2018-06-05T01:01:23.167Z,101023.36
2018-06-05T01:01:44.947Z,101020.74
2018-06-05T01:02:06.700Z,101021.13
2018-06-05T01:02:28.443Z,101022.05
2018-06-05T01:02:50.202Z,101019.69
2018-06-05T01:03:11.950Z,101019.30
2018-06-05T01:03:33.712Z,101020.61
2018-06-05T01:03:55.480Z,101020.73
2018-06-05T01:04:17.234Z,101022.05
2018-06-05T01:04:38.998Z,101021.53
2018-06-05T01:05:00.751Z,101023.30
2018-06-05T01:05:22.524Z,101021.44
2018-06-05T01:05:44.274Z,101022.91
2018-06-05T01:06:06.034Z,101024.83
2018-06-05T01:06:27.791Z,101022.47
2018-06-05T01:06:49.550Z,101023.00
2018-06-05T01:07:11.298Z,101019.73
2018-06-05T01:07:33.052Z,101021.52
2018-06-05T01:07:54.824Z,101020.59
2018-06-05T01:08:16.583Z,101025.71
2018-06-05T01:08:38.344Z,101026.22
2018-06-05T01:09:00.106Z,101026.36
2018-06-05T01:09:21.855Z,101022.30
2018-06-05T01:09:43.624Z,101028.33
2018-06-05T01:10:05.384Z,101027.68
2018-06-05T01:10:27.145Z,101024.80
2018-06-05T01:10:48.927Z,101025.45
2018-06-05T01:11:10.674Z,101026.37
2018-06-05T01:11:32.450Z,101031.06
2018-06-05T01:11:54.203Z,101025.31
2018-06-05T01:12:15.954Z,101027.16
2018-06-05T01:12:37.707Z,101024.27
2018-06-05T01:12:59.454Z,101024.80
2018-06-05T01:13:21.212Z,101025.31
2018-06-05T01:13:42.984Z,101024.53
2018-06-05T01:14:04.739Z,101024.53
2018-06-05T01:14:26.509Z,101023.48
2018-06-05T01:14:48.280Z,101028.33
2018-06-05T01:15:10.031Z,101026.75
2018-06-05T01:15:31.796Z,101027.59
2018-06-05T01:15:53.556Z,101025.70
2018-06-05T01:16:15.311Z,101023.83
2018-06-05T01:16:37.076Z,101026.27
2018-06-05T01:16:58.847Z,101025.83
2018-06-05T01:17:20.604Z,101029.76
2018-06-05T01:17:42.358Z,101025.97
2018-06-05T01:18:04.119Z,101025.31
2018-06-05T01:18:25.878Z,101022.35
2018-06-05T01:18:47.640Z,101030.15
2018-06-05T01:19:09.396Z,101022.91
2018-06-05T01:19:31.150Z,101024.92
2018-06-05T01:19:52.936Z,101023.08
2018-06-05T01:20:14.697Z,101025.97
2018-06-05T01:20:36.462Z,101023.34
2018-06-05T01:20:58.233Z,101018.77
2018-06-05T01:21:20.009Z,101023.61
2018-06-05T01:21:41.760Z,101025.44
2018-06-05T01:22:03.513Z,101020.69
2018-06-05T01:22:25.279Z,101019.38
2018-06-05T01:22:47.070Z,101020.25
2018-06-05T01:23:08.816Z,101020.25
2018-06-05T01:23:30.572Z,101018.76
2018-06-05T01:23:52.326Z,101020.64
2018-06-05T01:24:14.088Z,101020.77
2018-06-05T01:24:35.843Z,101019.33
2018-06-05T01:24:57.611Z,101024.70
2018-06-05T01:25:19.374Z,101027.45
2018-06-05T01:25:41.132Z,101025.08
2018-06-05T01:26:02.886Z,101024.30
2018-06-05T01:26:24.647Z,101020.37
2018-06-05T01:26:46.567Z,101023.00
2018-06-05T01:27:12.576Z,101024.83
2018-06-05T01:27:34.337Z,101024.31
2018-06-05T01:27:56.084Z,101015.54
2018-06-05T01:28:17.831Z,101024.61
2018-06-05T01:28:39.591Z,101024.75
2018-06-05T01:29:01.343Z,101021.99
2018-06-05T01:29:23.119Z,101024.75
2018-06-05T01:29:44.871Z,101019.20
2018-06-05T01:30:06.646Z,101021.55
2018-06-05T01:30:28.410Z,101027.18
2018-06-05T01:30:50.179Z,101018.80
2018-06-05T01:31:11.925Z,101020.64
2018-06-05T01:31:33.682Z,101025.09
2018-06-05T01:31:55.455Z,101025.22
2018-06-05T01:32:17.220Z,101019.20
2018-06-05T01:32:38.980Z,101026.05
2018-06-05T01:33:00.736Z,101026.27
2018-06-05T01:33:22.487Z,101018.94
2018-06-05T01:33:44.243Z,101019.59
2018-06-05T01:34:06.007Z,101024.44
2018-06-05T01:34:27.773Z,101021.16
2018-06-05T01:34:49.560Z,101022.34
2018-06-05T01:35:11.332Z,101021.69
2018-06-05T01:35:33.090Z,101022.91
2018-06-05T01:35:54.868Z,101025.75
2018-06-05T01:36:16.642Z,101024.95
2018-06-05T01:36:38.394Z,101026.53
2018-06-05T01:37:00.156Z,101028.23
2018-06-05T01:37:21.916Z,101022.61
2018-06-05T01:37:43.684Z,101023.78
2018-06-05T01:38:05.432Z,101018.55
2018-06-05T01:38:27.309Z,101021.83
2018-06-05T01:38:49.067Z,101023.66
2018-06-05T01:39:10.830Z,101019.16
2018-06-05T01:39:32.585Z,101021.77
2018-06-05T01:39:54.367Z,101023.66
2018-06-05T01:40:16.134Z,101020.52
2018-06-05T01:40:37.900Z,101022.22
2018-06-05T01:40:59.656Z,101012.27
2018-06-05T01:41:21.415Z,101016.37
2018-06-05T01:41:43.186Z,101012.14
2018-06-05T01:42:04.951Z,101016.20
2018-06-05T01:42:26.699Z,101011.88
2018-06-05T01:42:48.458Z,101014.23
2018-06-05T01:43:10.214Z,101017.77
2018-06-05T01:43:31.965Z,101013.05
2018-06-05T01:43:53.717Z,101014.08
2018-06-05T01:44:15.488Z,101017.17
2018-06-05T01:44:37.242Z,101017.31
2018-06-05T01:44:59.020Z,101015.14
2018-06-05T01:45:20.784Z,101022.59
2018-06-05T01:45:42.553Z,101016.31
2018-06-05T01:46:04.300Z,101015.09
2018-06-05T01:46:26.047Z,101015.78
2018-06-05T01:46:47.804Z,101012.47
2018-06-05T01:47:09.559Z,101016.14
2018-06-05T01:47:31.307Z,101016.39
2018-06-05T01:47:53.056Z,101015.09
2018-06-05T01:48:14.803Z,101020.23
2018-06-05T01:48:36.559Z,101014.36
2018-06-05T01:48:58.311Z,101021.55
2018-06-05T01:49:20.072Z,101018.01
2018-06-05T01:49:42.017Z,101014.30
2018-06-05T01:50:03.783Z,101014.48
2018-06-05T01:50:25.533Z,101017.23
2018-06-05T01:50:47.287Z,101011.99
2018-06-05T01:51:09.037Z,101016.14
2018-06-05T01:51:30.805Z,101013.91
2018-06-05T01:51:52.574Z,101008.46
2018-06-05T01:52:14.344Z,101014.56
2018-06-05T01:52:36.098Z,101010.64
2018-06-05T01:52:57.847Z,101018.47
2018-06-05T01:53:19.599Z,101011.81
2018-06-05T01:53:41.399Z,101013.25
2018-06-05T01:54:03.176Z,101011.42
2018-06-05T01:54:24.933Z,101015.07
2018-06-05T01:54:46.684Z,101010.88
2018-06-05T01:55:08.460Z,101007.22
2018-06-05T01:55:30.217Z,101016.13
2018-06-05T01:55:51.975Z,101012.20
2018-06-05T01:56:13.750Z,101012.45
2018-06-05T01:56:35.537Z,101014.81
2018-06-05T01:56:57.292Z,101018.48
2018-06-05T01:57:19.051Z,101015.09
2018-06-05T01:57:40.808Z,101009.72
2018-06-05T01:58:02.570Z,101014.94
2018-06-05T01:58:24.327Z,101012.72
2018-06-05T01:58:46.081Z,101013.50
2018-06-05T01:59:07.832Z,101017.95
2018-06-05T01:59:29.588Z,101011.42
2018-06-05T01:59:51.354Z,101014.68
2018-06-05T02:00:13.122Z,101008.94
2018-06-05T02:00:34.883Z,101012.47
2018-06-05T02:00:56.641Z,101009.98
2018-06-05T02:01:18.390Z,101012.52
2018-06-05T02:01:40.142Z,101011.34
2018-06-05T02:02:01.893Z,101010.56
2018-06-05T02:02:23.638Z,101020.38
2018-06-05T02:02:45.390Z,101013.18
2018-06-05T02:03:07.142Z,101018.67
2018-06-05T02:03:28.904Z,101016.58
2018-06-05T02:03:50.650Z,101016.44
2018-06-05T02:04:12.412Z,101011.99
2018-06-05T02:04:34.175Z,101014.22
2018-06-05T02:04:55.919Z,101015.00
2018-06-05T02:05:17.688Z,101016.05
2018-06-05T02:05:39.451Z,101019.31
2018-06-05T02:06:01.217Z,101021.28
2018-06-05T02:06:22.970Z,101019.59
2018-06-05T02:06:44.725Z,101012.52
2018-06-05T02:07:06.480Z,101017.36
2018-06-05T02:07:28.225Z,101021.81
2018-06-05T02:07:49.990Z,101015.78
2018-06-05T02:08:11.738Z,101017.45
2018-06-05T02:08:33.492Z,101016.44
2018-06-05T02:08:55.249Z,101017.89
2018-06-05T02:09:17.004Z,101024.82
2018-06-05T02:09:38.749Z,101021.28
2018-06-05T02:10:00.505Z,101018.92
2018-06-05T02:10:22.280Z,101020.71
2018-06-05T02:10:44.031Z,101019.15
2018-06-05T02:11:05.790Z,101019.80
2018-06-05T02:11:27.561Z,101017.84
2018-06-05T02:11:49.307Z,101019.31
2018-06-05T02:12:11.062Z,101018.53
2018-06-05T02:12:32.811Z,101017.09
2018-06-05T02:12:54.575Z,101019.15
2018-06-05T02:13:16.336Z,101017.09
2018-06-05T02:13:38.100Z,101019.98
2018-06-05T02:13:59.856Z,101019.98
2018-06-05T02:14:21.640Z,101019.20
2018-06-05T02:14:43.398Z,101024.30
2018-06-05T02:15:05.159Z,101026.77
2018-06-05T02:15:26.928Z,101024.77
2018-06-05T02:15:48.675Z,101020.06
2018-06-05T02:16:10.421Z,101017.09
2018-06-05T02:16:32.176Z,101021.77
2018-06-05T02:16:53.926Z,101017.09
2018-06-05T02:17:15.685Z,101017.70
2018-06-05T02:17:37.435Z,101017.83
2018-06-05T02:17:59.192Z,101021.89
2018-06-05T02:18:20.958Z,101023.46
2018-06-05T02:18:42.713Z,101019.80
2018-06-05T02:19:04.467Z,101020.58
2018-06-05T02:19:26.222Z,101020.58
2018-06-05T02:19:47.977Z,101024.48
2018-06-05T02:20:09.776Z,101019.39
2018-06-05T02:20:31.543Z,101019.39
2018-06-05T02:20:53.294Z,101017.05
2018-06-05T02:21:15.044Z,101021.36
2018-06-05T02:21:36.824Z,101018.22
2018-06-05T02:21:58.585Z,101018.88
2018-06-05T02:22:20.338Z,101024.23
2018-06-05T02:22:42.083Z,101018.61
2018-06-05T02:23:03.853Z,101016.25
2018-06-05T02:23:25.604Z,101014.80
2018-06-05T02:23:47.345Z,101015.73
2018-06-05T02:24:09.086Z,101021.75
2018-06-05T02:24:30.838Z,101017.44
2018-06-05T02:24:52.609Z,101013.39
2018-06-05T02:25:14.371Z,101018.62
2018-06-05T02:25:36.121Z,101015.88
2018-06-05T02:25:57.870Z,101012.61
2018-06-05T02:26:19.635Z,101016.52
2018-06-05T02:26:41.399Z,101013.23
2018-06-05T02:27:03.152Z,101017.30
2018-06-05T02:27:24.931Z,101015.60
2018-06-05T02:27:46.683Z,101007.75
2018-06-05T02:28:08.449Z,101014.42
2018-06-05T02:28:30.236Z,101015.07
2018-06-05T02:28:51.986Z,101009.06
2018-06-05T02:29:13.734Z,101010.88
2018-06-05T02:29:35.484Z,101013.36
2018-06-05T02:29:57.245Z,101012.39
2018-06-05T02:30:19.017Z,101014.50
2018-06-05T02:30:40.773Z,101006.77
2018-06-05T02:31:02.522Z,101010.18
2018-06-05T02:31:24.278Z,101010.44
2018-06-05T02:31:46.023Z,101004.68
2018-06-05T02:32:07.794Z,101010.44
2018-06-05T02:32:29.542Z,101008.08
2018-06-05T02:32:51.304Z,101014.62
2018-06-05T02:33:13.068Z,101017.50
2018-06-05T02:33:34.816Z,101011.36
2018-06-05T02:33:56.579Z,101013.50
2018-06-05T02:34:18.338Z,101012.80
2018-06-05T02:34:40.110Z,101012.97
2018-06-05T02:35:01.891Z,101009.44
2018-06-05T02:35:23.670Z,101010.74
2018-06-05T02:35:45.449Z,101007.82
2018-06-05T02:36:07.204Z,101014.66
2018-06-05T02:36:28.963Z,101011.22
2018-06-05T02:36:50.737Z,101014.62
2018-06-05T02:37:12.486Z,101012.12
2018-06-05T02:37:34.251Z,101012.38
2018-06-05T02:37:56.014Z,101012.12
2018-06-05T02:38:17.757Z,101011.47
2018-06-05T02:38:39.529Z,101008.60
2018-06-05T02:39:01.295Z,101016.43
2018-06-05T02:39:23.056Z,101011.20
2018-06-05T02:39:44.814Z,101009.50
2018-06-05T02:40:06.582Z,101017.69
2018-06-05T02:40:28.353Z,101011.31
2018-06-05T02:40:50.133Z,101013.37
2018-06-05T02:41:11.884Z,101011.45
2018-06-05T02:41:33.655Z,101010.76
2018-06-05T02:41:55.402Z,101011.53
2018-06-05T02:42:17.153Z,101015.66
2018-06-05T02:42:38.910Z,101009.37
2018-06-05T02:43:00.673Z,101010.28
2018-06-05T02:43:22.422Z,101015.91
2018-06-05T02:43:44.183Z,101014.46
2018-06-05T02:44:05.939Z,101010.03
2018-06-05T02:44:27.693Z,101005.97
2018-06-05T02:44:49.466Z,101008.20
2018-06-05T02:45:11.232Z,101012.78
2018-06-05T02:45:32.989Z,101007.67
2018-06-05T02:45:54.730Z,101011.20
2018-06-05T02:46:16.482Z,101010.14
2018-06-05T02:46:38.245Z,101016.82
2018-06-05T02:47:00.000Z,101011.59
2018-06-05T02:47:21.751Z,101013.81
2018-06-05T02:47:43.497Z,101016.69
2018-06-05T02:48:05.272Z,101016.55
2018-06-05T02:48:27.026Z,101009.84
2018-06-05T02:48:48.783Z,101013.29
2018-06-05T02:49:10.536Z,101012.63
2018-06-05T02:49:32.293Z,101012.18
2018-06-05T02:49:54.062Z,101012.71
2018-06-05T02:50:15.847Z,101015.17
2018-06-05T02:50:37.606Z,101014.00
2018-06-05T02:50:59.371Z,101011.66
2018-06-05T02:51:21.128Z,101013.88
2018-06-05T02:51:42.983Z,101009.70
2018-06-05T02:52:04.751Z,101013.02
2018-06-05T02:52:26.510Z,101009.45
2018-06-05T02:52:48.263Z,101015.07
2018-06-05T02:53:10.062Z,101010.09
2018-06-05T02:53:31.791Z,101014.02
2018-06-05T02:53:53.552Z,101015.85
2018-06-05T02:54:15.312Z,101011.66
2018-06-05T02:54:37.062Z,101015.05
2018-06-05T02:54:58.862Z,101010.88
2018-06-05T02:55:20.627Z,101015.58
2018-06-05T02:55:42.379Z,101011.91
2018-06-05T02:56:04.132Z,101012.44
2018-06-05T02:56:25.894Z,101014.39
2018-06-05T02:56:47.681Z,101011.27
2018-06-05T02:57:09.466Z,101012.94
2018-06-05T02:57:31.229Z,101011.25
2018-06-05T02:57:53.011Z,101010.58
2018-06-05T02:58:14.776Z,101013.22
2018-06-05T02:58:36.528Z,101015.33
2018-06-05T02:58:58.290Z,101017.16
2018-06-05T02:59:20.052Z,101008.26
2018-06-05T02:59:41.812Z,101012.44
2018-06-05T03:00:03.572Z,101008.88
2018-06-05T03:00:25.372Z,101010.02
2018-06-05T03:00:47.123Z,101009.22
2018-06-05T03:01:08.887Z,101002.56
2018-06-05T03:01:30.643Z,101012.41
2018-06-05T03:01:52.417Z,101006.02
2018-06-05T03:02:14.175Z,101011.11
2018-06-05T03:02:35.938Z,101009.87
2018-06-05T03:02:57.692Z,101009.61
2018-06-05T03:03:19.468Z,101006.48
2018-06-05T03:03:41.228Z,101006.87
2018-06-05T03:04:02.991Z,101002.17
2018-06-05T03:04:24.759Z,101009.27
2018-06-05T03:04:46.506Z,101010.86
2018-06-05T03:05:08.263Z,101007.71
2018-06-05T03:05:30.026Z,101009.27
2018-06-05T03:05:51.778Z,101007.41
2018-06-05T03:06:13.536Z,101012.44
2018-06-05T03:06:35.282Z,101005.89
2018-06-05T03:06:57.034Z,101005.89
2018-06-05T03:07:18.788Z,101014.13
2018-06-05T03:07:40.543Z,101012.94
2018-06-05T03:08:02.297Z,101013.72
2018-06-05T03:08:24.055Z,101012.11
2018-06-05T03:08:45.814Z,101010.97
2018-06-05T03:09:07.575Z,101010.47
2018-06-05T03:09:29.326Z,101017.64
2018-06-05T03:09:51.080Z,101013.61
2018-06-05T03:10:12.830Z,101017.00
2018-06-05T03:10:34.595Z,101016.08
2018-06-05T03:10:56.347Z,101015.30
2018-06-05T03:11:18.104Z,101018.05
2018-06-05T03:11:39.865Z,101011.52
2018-06-05T03:12:01.622Z,101015.05
2018-06-05T03:12:23.404Z,101010.99
2018-06-05T03:12:45.163Z,101020.53
2018-06-05T03:13:06.921Z,101018.42
2018-06-05T03:13:28.689Z,101019.09
2018-06-05T03:13:50.454Z,101017.92
2018-06-05T03:14:12.212Z,101015.05
2018-06-05T03:14:33.984Z,101016.50
2018-06-05T03:14:55.738Z,101015.44
2018-06-05T03:15:17.488Z,101012.84
2018-06-05T03:15:39.271Z,101015.83
2018-06-05T03:16:01.019Z,101016.75
2018-06-05T03:16:22.762Z,101020.81
2018-06-05T03:16:44.526Z,101016.50
2018-06-05T03:17:06.288Z,101011.53
2018-06-05T03:17:28.051Z,101014.80
2018-06-05T03:17:49.817Z,101016.75
2018-06-05T03:18:11.563Z,101015.97
2018-06-05T03:18:33.312Z,101015.44
2018-06-05T03:18:55.091Z,101009.02
2018-06-05T03:19:16.843Z,101011.11
2018-06-05T03:19:38.598Z,101008.97
2018-06-05T03:20:00.352Z,101017.72
2018-06-05T03:20:22.098Z,101016.61
2018-06-05T03:20:43.854Z,101010.48
2018-06-05T03:21:05.603Z,101011.92
2018-06-05T03:21:27.385Z,101011.66
2018-06-05T03:21:49.137Z,101005.89
2018-06-05T03:22:10.901Z,101006.54
2018-06-05T03:22:32.657Z,101008.77
2018-06-05T03:22:54.403Z,101010.60
2018-06-05T03:23:16.146Z,101005.77
2018-06-05T03:23:37.924Z,101010.60
2018-06-05T03:23:59.664Z,101007.84
2018-06-05T03:24:21.434Z,101004.45
2018-06-05T03:24:43.199Z,101007.84
2018-06-05T03:25:04.951Z,101005.64
2018-06-05T03:25:26.703Z,101006.54
2018-06-05T03:25:48.479Z,101006.09
2018-06-05T03:26:10.238Z,101009.41
2018-06-05T03:26:31.986Z,101010.60
2018-06-05T03:26:53.739Z,101009.30
2018-06-05T03:27:15.510Z,101009.16
2018-06-05T03:27:37.258Z,101006.41
2018-06-05T03:27:59.049Z,101000.25
2018-06-05T03:28:20.806Z,100999.34
2018-06-05T03:28:42.563Z,101003.88
2018-06-05T03:29:04.315Z,101005.88
2018-06-05T03:29:26.079Z,101006.94
2018-06-05T03:29:47.835Z,101003.79
2018-06-05T03:30:09.592Z,101002.56
2018-06-05T03:30:31.378Z,101005.82
2018-06-05T03:30:53.148Z,101005.18
2018-06-05T03:31:14.920Z,101003.59
2018-06-05T03:31:36.670Z,101007.05
2018-06-05T03:31:58.423Z,101006.27
2018-06-05T03:32:20.183Z,101005.09
2018-06-05T03:33:10.080Z,101004.84
2018-06-05T03:33:31.835Z,101005.63
2018-06-05T03:33:53.582Z,101006.41
2018-06-05T03:34:15.345Z,101006.94
2018-06-05T03:34:37.094Z,101003.14
2018-06-05T03:34:58.848Z,101005.89
2018-06-05T03:35:20.615Z,101006.42
2018-06-05T03:35:42.410Z,101005.51
2018-06-05T03:36:04.165Z,101005.51
2018-06-05T03:36:25.916Z,101001.04
2018-06-05T03:36:47.670Z,101009.55
2018-06-05T03:37:09.429Z,101004.45
2018-06-05T03:37:31.197Z,101002.62
2018-06-05T03:37:52.955Z,101007.20
2018-06-05T03:38:14.707Z,101014.94
2018-06-05T03:38:36.469Z,101009.17
2018-06-05T03:38:58.220Z,101008.12
2018-06-05T03:39:19.963Z,101010.21
2018-06-05T03:39:41.704Z,101005.64
2018-06-05T03:40:03.442Z,101008.53
2018-06-05T03:40:25.199Z,101006.42
2018-06-05T03:40:47.009Z,101005.51
2018-06-05T03:41:08.735Z,101007.20
2018-06-05T03:41:30.493Z,101009.16
2018-06-05T03:41:52.261Z,101008.38
2018-06-05T03:42:14.031Z,101011.25
2018-06-05T03:42:35.800Z,101001.25
2018-06-05T03:42:57.542Z,101004.79
2018-06-05T03:43:19.324Z,101006.09
2018-06-05T03:43:41.084Z,101001.95
2018-06-05T03:44:02.850Z,101008.62
2018-06-05T03:44:24.591Z,101001.31
2018-06-05T03:44:46.343Z,101007.46
2018-06-05T03:45:08.087Z,101004.70
2018-06-05T03:45:29.848Z,101006.54
2018-06-05T03:45:51.622Z,101010.99
2018-06-05T03:46:13.379Z,101008.58
2018-06-05T03:46:35.132Z,101009.36
2018-06-05T03:46:56.889Z,101012.11
2018-06-05T03:47:18.641Z,101009.22
2018-06-05T03:47:40.399Z,101015.23
2018-06-05T03:49:05.432Z,101012.50
2018-06-05T03:49:27.194Z,101016.95
2018-06-05T03:49:48.955Z,101015.25
2018-06-05T03:50:10.724Z,101021.04
2018-06-05T03:50:32.489Z,101013.58
2018-06-05T03:50:54.260Z,101015.81
2018-06-05T03:51:16.021Z,101019.34
2018-06-05T03:51:37.796Z,101017.64
2018-06-05T03:51:59.557Z,101018.56
2018-06-05T03:52:21.311Z,101014.72
2018-06-05T03:52:43.059Z,101021.12
2018-06-05T03:53:04.832Z,101018.64
2018-06-05T03:53:26.586Z,101019.28
2018-06-05T03:53:48.356Z,101020.43
2018-06-05T03:54:10.108Z,101024.91
2018-06-05T03:54:31.853Z,101018.23
2018-06-05T03:54:53.621Z,101018.89
2018-06-05T03:55:15.388Z,101018.81
2018-06-05T03:55:37.142Z,101020.40
2018-06-05T03:55:58.918Z,101021.78
2018-06-05T03:56:20.687Z,101018.17
2018-06-05T03:56:42.428Z,101021.31
2018-06-05T03:57:04.183Z,101024.45
2018-06-05T03:57:25.945Z,101023.54
2018-06-05T03:57:47.703Z,101024.45
2018-06-05T03:58:09.603Z,101027.19
2018-06-05T03:58:31.368Z,101019.28
2018-06-05T03:58:53.121Z,101028.30
2018-06-05T03:59:14.871Z,101025.30
2018-06-05T03:59:36.614Z,101026.60
2018-06-05T03:59:58.370Z,101023.07
2018-06-05T04:00:20.124Z,101022.95
2018-06-05T04:00:41.883Z,101024.13
2018-06-05T04:01:03.647Z,101027.97
2018-06-05T04:01:25.422Z,101027.02
2018-06-05T04:01:47.172Z,101027.80
2018-06-05T04:02:08.928Z,101026.48
2018-06-05T04:02:30.696Z,101027.02
2018-06-05T04:02:52.443Z,101032.36
2018-06-05T04:03:14.205Z,101025.18
2018-06-05T04:03:35.964Z,101033.28
2018-06-05T04:03:57.735Z,101030.19
2018-06-05T04:04:19.514Z,101028.69
2018-06-05T04:04:41.269Z,101023.84
2018-06-05T04:05:03.026Z,101025.41
2018-06-05T04:05:24.789Z,101026.72
2018-06-05T04:05:46.546Z,101026.33
2018-06-05T04:06:40.882Z,101031.33
2018-06-05T04:07:02.667Z,101026.27
2018-06-05T04:07:24.418Z,101024.10
2018-06-05T04:07:46.181Z,101027.37
2018-06-05T04:08:07.928Z,101026.87
2018-06-05T04:08:29.676Z,101031.19
2018-06-05T04:08:51.432Z,101023.48
2018-06-05T04:09:13.227Z,101021.26
2018-06-05T04:09:34.974Z,101024.58
2018-06-05T04:09:56.734Z,101027.85
2018-06-05T04:10:18.496Z,101026.27